sensor_id;sensor_type;location;lat;lon;timestamp;P1;durP1;ratioP1;P2;durP2;ratioP2
23628;SDS011;11991;57.150;-2.134;2022-09-02T00:01:25;0.55;;;0.55;;
23628;SDS011;11991;57.150;-2.134;2022-09-02T00:04:01;0.50;;;0.50;;
23628;SDS011;11991;57.150;-2.134;2022-09-02T00:06:33;0.80;;;0.80;;
23628;SDS011;11991;57.150;-2.134;2022-09-02T00:09:03;0.47;;;0.47;;
23628;SDS011;11991;57.150;-2.134;2022-09-02T00:11:32;0.65;;;0.60;;
23628;SDS011;11991;57.150;-2.134;2022-09-02T00:14:02;0.63;;;0.63;;
23628;SDS011;11991;57.150;-2.134;2022-09-02T00:16:32;0.60;;;0.60;;
23628;SDS011;11991;57.150;-2.134;2022-09-02T00:19:00;0.73;;;0.70;;
23628;SDS011;11991;57.150;-2.134;2022-09-02T00:21:29;0.68;;;0.68;;
23628;SDS011;11991;57.150;-2.134;2022-09-02T00:23:59;0.80;;;0.80;;
23628;SDS011;11991;57.150;-2.134;2022-09-02T00:26:30;0.95;;;0.70;;
23628;SDS011;11991;57.150;-2.134;2022-09-02T00:28:59;0.57;;;0.57;;
23628;SDS011;11991;57.150;-2.134;2022-09-02T00:31:26;0.57;;;0.57;;
23628;SDS011;11991;57.150;-2.134;2022-09-02T00:33:54;0.50;;;0.50;;
23628;SDS011;11991;57.150;-2.134;2022-09-02T00:36:22;0.73;;;0.60;;
23628;SDS011;11991;57.150;-2.134;2022-09-02T00:38:49;0.70;;;0.70;;
23628;SDS011;11991;57.150;-2.134;2022-09-02T00:41:18;0.60;;;0.60;;
23628;SDS011;11991;57.150;-2.134;2022-09-02T00:43:52;0.98;;;0.70;;
23628;SDS011;11991;57.150;-2.134;2022-09-02T00:46:26;0.68;;;0.68;;
23628;SDS011;11991;57.150;-2.134;2022-09-02T00:48:58;0.85;;;0.70;;
23628;SDS011;11991;57.150;-2.134;2022-09-02T00:51:32;0.88;;;0.75;;
23628;SDS011;11991;57.150;-2.134;2022-09-02T00:54:03;1.05;;;0.70;;
23628;SDS011;11991;57.150;-2.134;2022-09-02T00:56:33;0.70;;;0.70;;
23628;SDS011;11991;57.150;-2.134;2022-09-02T00:59:04;0.65;;;0.63;;
23628;SDS011;11991;57.150;-2.134;2022-09-02T01:01:32;0.60;;;0.60;;
23628;SDS011;11991;57.150;-2.134;2022-09-02T01:04:00;0.60;;;0.60;;
23628;SDS011;11991;57.150;-2.134;2022-09-02T01:06:27;0.60;;;0.60;;
23628;SDS011;11991;57.150;-2.134;2022-09-02T01:09:04;0.50;;;0.50;;
23628;SDS011;11991;57.150;-2.134;2022-09-02T01:11:43;0.50;;;0.50;;
23628;SDS011;11991;57.150;-2.134;2022-09-02T01:14:14;0.68;;;0.68;;
23628;SDS011;11991;57.150;-2.134;2022-09-02T01:16:52;0.50;;;0.50;;
23628;SDS011;11991;57.150;-2.134;2022-09-02T01:19:23;0.77;;;0.65;;
23628;SDS011;11991;57.150;-2.134;2022-09-02T01:21:54;0.60;;;0.60;;
23628;SDS011;11991;57.150;-2.134;2022-09-02T01:24:30;0.70;;;0.70;;
23628;SDS011;11991;57.150;-2.134;2022-09-02T01:26:59;1.23;;;0.70;;
23628;SDS011;11991;57.150;-2.134;2022-09-02T01:29:26;0.70;;;0.70;;
23628;SDS011;11991;57.150;-2.134;2022-09-02T01:31:54;0.82;;;0.68;;
23628;SDS011;11991;57.150;-2.134;2022-09-02T01:37:04;0.60;;;0.60;;
23628;SDS011;11991;57.150;-2.134;2022-09-02T01:39:32;0.55;;;0.50;;
23628;SDS011;11991;57.150;-2.134;2022-09-02T01:42:00;0.50;;;0.50;;
23628;SDS011;11991;57.150;-2.134;2022-09-02T01:44:28;0.73;;;0.73;;
23628;SDS011;11991;57.150;-2.134;2022-09-02T01:46:55;0.63;;;0.60;;
23628;SDS011;11991;57.150;-2.134;2022-09-02T01:49:23;0.88;;;0.82;;
23628;SDS011;11991;57.150;-2.134;2022-09-02T01:51:53;0.77;;;0.77;;
23628;SDS011;11991;57.150;-2.134;2022-09-02T01:54:22;0.93;;;0.80;;
23628;SDS011;11991;57.150;-2.134;2022-09-02T01:56:49;0.50;;;0.50;;
23628;SDS011;11991;57.150;-2.134;2022-09-02T01:59:17;0.73;;;0.73;;
23628;SDS011;11991;57.150;-2.134;2022-09-02T02:01:46;0.63;;;0.63;;
23628;SDS011;11991;57.150;-2.134;2022-09-02T02:04:17;0.52;;;0.52;;
23628;SDS011;11991;57.150;-2.134;2022-09-02T02:06:46;0.65;;;0.65;;
23628;SDS011;11991;57.150;-2.134;2022-09-02T02:09:19;0.40;;;0.40;;
23628;SDS011;11991;57.150;-2.134;2022-09-02T02:11:48;0.68;;;0.60;;
23628;SDS011;11991;57.150;-2.134;2022-09-02T02:14:15;0.75;;;0.63;;
23628;SDS011;11991;57.150;-2.134;2022-09-02T02:16:46;0.50;;;0.50;;
23628;SDS011;11991;57.150;-2.134;2022-09-02T02:19:13;0.50;;;0.50;;
23628;SDS011;11991;57.150;-2.134;2022-09-02T02:21:41;0.63;;;0.60;;
23628;SDS011;11991;57.150;-2.134;2022-09-02T02:24:08;1.10;;;0.70;;
23628;SDS011;11991;57.150;-2.134;2022-09-02T02:26:36;0.70;;;0.70;;
23628;SDS011;11991;57.150;-2.134;2022-09-02T02:29:04;0.60;;;0.60;;
23628;SDS011;11991;57.150;-2.134;2022-09-02T02:31:32;0.55;;;0.50;;
23628;SDS011;11991;57.150;-2.134;2022-09-02T02:33:59;0.63;;;0.60;;
23628;SDS011;11991;57.150;-2.134;2022-09-02T02:36:27;0.63;;;0.63;;
23628;SDS011;11991;57.150;-2.134;2022-09-02T02:38:55;0.65;;;0.65;;
23628;SDS011;11991;57.150;-2.134;2022-09-02T02:41:22;0.70;;;0.63;;
23628;SDS011;11991;57.150;-2.134;2022-09-02T02:43:50;0.50;;;0.50;;
23628;SDS011;11991;57.150;-2.134;2022-09-02T02:46:18;0.50;;;0.50;;
23628;SDS011;11991;57.150;-2.134;2022-09-02T02:48:45;0.70;;;0.70;;
23628;SDS011;11991;57.150;-2.134;2022-09-02T02:51:14;1.95;;;1.02;;
23628;SDS011;11991;57.150;-2.134;2022-09-02T02:53:42;0.90;;;0.60;;
23628;SDS011;11991;57.150;-2.134;2022-09-02T02:56:10;1.40;;;0.70;;
23628;SDS011;11991;57.150;-2.134;2022-09-02T02:58:37;0.52;;;0.50;;
23628;SDS011;11991;57.150;-2.134;2022-09-02T03:01:06;0.70;;;0.70;;
23628;SDS011;11991;57.150;-2.134;2022-09-02T03:03:34;0.50;;;0.50;;
23628;SDS011;11991;57.150;-2.134;2022-09-02T03:06:03;0.63;;;0.63;;
23628;SDS011;11991;57.150;-2.134;2022-09-02T03:08:30;0.95;;;0.82;;
23628;SDS011;11991;57.150;-2.134;2022-09-02T03:10:59;0.80;;;0.70;;
23628;SDS011;11991;57.150;-2.134;2022-09-02T03:13:29;0.70;;;0.70;;
23628;SDS011;11991;57.150;-2.134;2022-09-02T03:16:00;0.60;;;0.60;;
23628;SDS011;11991;57.150;-2.134;2022-09-02T03:18:32;0.60;;;0.55;;
23628;SDS011;11991;57.150;-2.134;2022-09-02T03:21:00;0.77;;;0.77;;
23628;SDS011;11991;57.150;-2.134;2022-09-02T03:23:32;0.65;;;0.60;;
23628;SDS011;11991;57.150;-2.134;2022-09-02T03:26:00;1.15;;;0.70;;
23628;SDS011;11991;57.150;-2.134;2022-09-02T03:28:32;0.60;;;0.60;;
23628;SDS011;11991;57.150;-2.134;2022-09-02T03:31:01;0.85;;;0.52;;
23628;SDS011;11991;57.150;-2.134;2022-09-02T03:33:29;0.77;;;0.68;;
23628;SDS011;11991;57.150;-2.134;2022-09-02T03:35:57;0.60;;;0.60;;
23628;SDS011;11991;57.150;-2.134;2022-09-02T03:38:26;0.50;;;0.50;;
23628;SDS011;11991;57.150;-2.134;2022-09-02T03:40:53;0.85;;;0.50;;
23628;SDS011;11991;57.150;-2.134;2022-09-02T03:43:20;0.80;;;0.80;;
23628;SDS011;11991;57.150;-2.134;2022-09-02T03:45:48;0.50;;;0.50;;
23628;SDS011;11991;57.150;-2.134;2022-09-02T03:48:16;0.60;;;0.60;;
23628;SDS011;11991;57.150;-2.134;2022-09-02T03:50:44;0.75;;;0.75;;
23628;SDS011;11991;57.150;-2.134;2022-09-02T03:53:16;1.20;;;0.90;;
23628;SDS011;11991;57.150;-2.134;2022-09-02T03:55:50;0.77;;;0.60;;
23628;SDS011;11991;57.150;-2.134;2022-09-02T03:58:20;0.70;;;0.70;;
23628;SDS011;11991;57.150;-2.134;2022-09-02T04:00:51;0.90;;;0.70;;
23628;SDS011;11991;57.150;-2.134;2022-09-02T04:03:23;0.60;;;0.60;;
23628;SDS011;11991;57.150;-2.134;2022-09-02T04:05:51;0.60;;;0.60;;
23628;SDS011;11991;57.150;-2.134;2022-09-02T04:08:21;0.82;;;0.68;;
23628;SDS011;11991;57.150;-2.134;2022-09-02T04:10:50;0.50;;;0.50;;
23628;SDS011;11991;57.150;-2.134;2022-09-02T04:13:18;0.60;;;0.60;;
23628;SDS011;11991;57.150;-2.134;2022-09-02T04:15:46;0.60;;;0.60;;
23628;SDS011;11991;57.150;-2.134;2022-09-02T04:18:19;0.50;;;0.50;;
23628;SDS011;11991;57.150;-2.134;2022-09-02T04:20:48;1.27;;;0.80;;
23628;SDS011;11991;57.150;-2.134;2022-09-02T04:23:17;1.00;;;0.90;;
23628;SDS011;11991;57.150;-2.134;2022-09-02T04:25:45;0.93;;;0.80;;
23628;SDS011;11991;57.150;-2.134;2022-09-02T04:28:14;1.00;;;0.90;;
23628;SDS011;11991;57.150;-2.134;2022-09-02T04:30:42;0.90;;;0.80;;
23628;SDS011;11991;57.150;-2.134;2022-09-02T04:33:11;1.05;;;0.80;;
23628;SDS011;11991;57.150;-2.134;2022-09-02T04:35:40;1.83;;;1.20;;
23628;SDS011;11991;57.150;-2.134;2022-09-02T04:38:14;1.42;;;1.20;;
23628;SDS011;11991;57.150;-2.134;2022-09-02T04:40:44;1.20;;;1.08;;
23628;SDS011;11991;57.150;-2.134;2022-09-02T04:43:15;1.25;;;1.00;;
23628;SDS011;11991;57.150;-2.134;2022-09-02T04:45:44;1.42;;;1.20;;
23628;SDS011;11991;57.150;-2.134;2022-09-02T04:48:14;0.80;;;0.80;;
23628;SDS011;11991;57.150;-2.134;2022-09-02T04:50:43;1.20;;;1.10;;
23628;SDS011;11991;57.150;-2.134;2022-09-02T04:53:11;1.80;;;1.27;;
23628;SDS011;11991;57.150;-2.134;2022-09-02T04:55:41;1.08;;;0.98;;
23628;SDS011;11991;57.150;-2.134;2022-09-02T04:58:11;1.35;;;1.10;;
23628;SDS011;11991;57.150;-2.134;2022-09-02T05:00:39;1.75;;;1.00;;
23628;SDS011;11991;57.150;-2.134;2022-09-02T05:03:10;1.20;;;1.10;;
23628;SDS011;11991;57.150;-2.134;2022-09-02T05:05:40;0.82;;;0.82;;
23628;SDS011;11991;57.150;-2.134;2022-09-02T05:08:10;1.20;;;1.10;;
23628;SDS011;11991;57.150;-2.134;2022-09-02T05:10:41;1.25;;;1.13;;
23628;SDS011;11991;57.150;-2.134;2022-09-02T05:13:09;1.55;;;1.45;;
23628;SDS011;11991;57.150;-2.134;2022-09-02T05:15:38;2.05;;;1.48;;
23628;SDS011;11991;57.150;-2.134;2022-09-02T05:18:07;1.30;;;1.20;;
23628;SDS011;11991;57.150;-2.134;2022-09-02T05:20:38;1.20;;;1.05;;
23628;SDS011;11991;57.150;-2.134;2022-09-02T05:23:06;1.70;;;1.40;;
23628;SDS011;11991;57.150;-2.134;2022-09-02T05:25:35;1.70;;;1.13;;
23628;SDS011;11991;57.150;-2.134;2022-09-02T05:28:04;1.70;;;1.60;;
23628;SDS011;11991;57.150;-2.134;2022-09-02T05:30:35;1.55;;;1.10;;
23628;SDS011;11991;57.150;-2.134;2022-09-02T05:33:05;2.60;;;1.80;;
23628;SDS011;11991;57.150;-2.134;2022-09-02T05:35:40;2.00;;;1.20;;
23628;SDS011;11991;57.150;-2.134;2022-09-02T05:38:12;1.80;;;1.65;;
23628;SDS011;11991;57.150;-2.134;2022-09-02T05:40:40;3.42;;;1.92;;
23628;SDS011;11991;57.150;-2.134;2022-09-02T05:43:08;1.73;;;1.40;;
23628;SDS011;11991;57.150;-2.134;2022-09-02T05:45:36;1.55;;;1.45;;
23628;SDS011;11991;57.150;-2.134;2022-09-02T05:48:05;2.33;;;1.50;;
23628;SDS011;11991;57.150;-2.134;2022-09-02T05:50:52;1.30;;;1.20;;
23628;SDS011;11991;57.150;-2.134;2022-09-02T05:53:24;1.52;;;1.20;;
23628;SDS011;11991;57.150;-2.134;2022-09-02T05:55:53;2.05;;;1.52;;
23628;SDS011;11991;57.150;-2.134;2022-09-02T05:58:22;1.65;;;1.45;;
23628;SDS011;11991;57.150;-2.134;2022-09-02T06:00:50;2.38;;;1.52;;
23628;SDS011;11991;57.150;-2.134;2022-09-02T06:03:19;2.05;;;1.35;;
23628;SDS011;11991;57.150;-2.134;2022-09-02T06:05:55;1.73;;;1.30;;
23628;SDS011;11991;57.150;-2.134;2022-09-02T06:08:30;1.75;;;1.45;;
23628;SDS011;11991;57.150;-2.134;2022-09-02T06:10:59;1.83;;;1.45;;
23628;SDS011;11991;57.150;-2.134;2022-09-02T06:13:28;2.50;;;1.17;;
23628;SDS011;11991;57.150;-2.134;2022-09-02T06:15:57;1.48;;;1.20;;
23628;SDS011;11991;57.150;-2.134;2022-09-02T06:18:28;2.38;;;1.48;;
23628;SDS011;11991;57.150;-2.134;2022-09-02T06:20:57;1.95;;;1.30;;
23628;SDS011;11991;57.150;-2.134;2022-09-02T06:23:29;1.45;;;1.35;;
23628;SDS011;11991;57.150;-2.134;2022-09-02T06:26:00;1.35;;;1.25;;
23628;SDS011;11991;57.150;-2.134;2022-09-02T06:28:28;2.30;;;1.20;;
23628;SDS011;11991;57.150;-2.134;2022-09-02T06:30:57;1.42;;;1.30;;
23628;SDS011;11991;57.150;-2.134;2022-09-02T06:33:25;1.30;;;1.10;;
23628;SDS011;11991;57.150;-2.134;2022-09-02T06:35:53;1.98;;;1.77;;
23628;SDS011;11991;57.150;-2.134;2022-09-02T06:38:20;1.50;;;1.40;;
23628;SDS011;11991;57.150;-2.134;2022-09-02T06:40:50;1.60;;;1.40;;
23628;SDS011;11991;57.150;-2.134;2022-09-02T06:43:27;2.42;;;1.55;;
23628;SDS011;11991;57.150;-2.134;2022-09-02T06:46:19;2.90;;;2.08;;
23628;SDS011;11991;57.150;-2.134;2022-09-02T06:48:51;1.60;;;1.50;;
23628;SDS011;11991;57.150;-2.134;2022-09-02T06:51:24;1.45;;;1.20;;
23628;SDS011;11991;57.150;-2.134;2022-09-02T06:53:54;1.27;;;1.17;;
23628;SDS011;11991;57.150;-2.134;2022-09-02T06:56:25;1.67;;;1.20;;
23628;SDS011;11991;57.150;-2.134;2022-09-02T06:58:53;1.25;;;1.15;;
23628;SDS011;11991;57.150;-2.134;2022-09-02T07:01:39;1.77;;;1.33;;
23628;SDS011;11991;57.150;-2.134;2022-09-02T07:04:09;1.23;;;1.13;;
23628;SDS011;11991;57.150;-2.134;2022-09-02T07:06:55;1.42;;;1.10;;
23628;SDS011;11991;57.150;-2.134;2022-09-02T07:09:27;1.33;;;1.13;;
23628;SDS011;11991;57.150;-2.134;2022-09-02T07:12:03;1.20;;;1.10;;
23628;SDS011;11991;57.150;-2.134;2022-09-02T07:14:37;0.70;;;0.70;;
23628;SDS011;11991;57.150;-2.134;2022-09-02T07:17:07;1.60;;;1.00;;
23628;SDS011;11991;57.150;-2.134;2022-09-02T07:19:36;0.75;;;0.75;;
23628;SDS011;11991;57.150;-2.134;2022-09-02T07:22:04;2.63;;;1.27;;
23628;SDS011;11991;57.150;-2.134;2022-09-02T07:24:36;1.95;;;0.80;;
23628;SDS011;11991;57.150;-2.134;2022-09-02T07:27:05;1.33;;;0.77;;
23628;SDS011;11991;57.150;-2.134;2022-09-02T07:29:33;0.73;;;0.73;;
23628;SDS011;11991;57.150;-2.134;2022-09-02T07:32:01;1.40;;;0.80;;
23628;SDS011;11991;57.150;-2.134;2022-09-02T07:34:29;0.70;;;0.70;;
23628;SDS011;11991;57.150;-2.134;2022-09-02T07:36:58;0.95;;;0.80;;
23628;SDS011;11991;57.150;-2.134;2022-09-02T07:39:32;0.95;;;0.82;;
23628;SDS011;11991;57.150;-2.134;2022-09-02T07:42:00;0.90;;;0.80;;
23628;SDS011;11991;57.150;-2.134;2022-09-02T07:44:28;0.82;;;0.82;;
23628;SDS011;11991;57.150;-2.134;2022-09-02T07:46:58;1.17;;;0.90;;
23628;SDS011;11991;57.150;-2.134;2022-09-02T07:49:29;0.70;;;0.70;;
23628;SDS011;11991;57.150;-2.134;2022-09-02T07:52:16;1.20;;;1.00;;
23628;SDS011;11991;57.150;-2.134;2022-09-02T07:54:44;1.13;;;1.02;;
23628;SDS011;11991;57.150;-2.134;2022-09-02T07:57:12;0.88;;;0.70;;
23628;SDS011;11991;57.150;-2.134;2022-09-02T07:59:41;1.08;;;0.90;;
23628;SDS011;11991;57.150;-2.134;2022-09-02T08:02:13;0.95;;;0.75;;
23628;SDS011;11991;57.150;-2.134;2022-09-02T08:04:42;0.60;;;0.60;;
23628;SDS011;11991;57.150;-2.134;2022-09-02T08:07:10;1.00;;;0.60;;
23628;SDS011;11991;57.150;-2.134;2022-09-02T08:09:38;2.05;;;1.23;;
23628;SDS011;11991;57.150;-2.134;2022-09-02T08:12:05;1.48;;;0.90;;
23628;SDS011;11991;57.150;-2.134;2022-09-02T08:14:33;1.15;;;0.70;;
23628;SDS011;11991;57.150;-2.134;2022-09-02T08:17:01;0.82;;;0.65;;
23628;SDS011;11991;57.150;-2.134;2022-09-02T08:19:29;1.67;;;1.00;;
23628;SDS011;11991;57.150;-2.134;2022-09-02T08:22:01;3.17;;;1.10;;
23628;SDS011;11991;57.150;-2.134;2022-09-02T08:24:30;1.30;;;0.70;;
23628;SDS011;11991;57.150;-2.134;2022-09-02T08:26:58;1.38;;;0.73;;
23628;SDS011;11991;57.150;-2.134;2022-09-02T08:29:25;0.77;;;0.75;;
23628;SDS011;11991;57.150;-2.134;2022-09-02T08:31:53;1.00;;;1.00;;
23628;SDS011;11991;57.150;-2.134;2022-09-02T08:34:20;1.33;;;1.10;;
23628;SDS011;11991;57.150;-2.134;2022-09-02T08:36:48;0.93;;;0.88;;
23628;SDS011;11991;57.150;-2.134;2022-09-02T08:39:22;0.90;;;0.80;;
23628;SDS011;11991;57.150;-2.134;2022-09-02T08:42:34;1.23;;;0.80;;
23628;SDS011;11991;57.150;-2.134;2022-09-02T08:45:05;1.95;;;0.80;;
23628;SDS011;11991;57.150;-2.134;2022-09-02T08:47:34;2.15;;;1.00;;
23628;SDS011;11991;57.150;-2.134;2022-09-02T08:50:09;1.30;;;0.75;;
23628;SDS011;11991;57.150;-2.134;2022-09-02T08:55:23;1.08;;;0.88;;
23628;SDS011;11991;57.150;-2.134;2022-09-02T08:58:02;0.95;;;0.80;;
23628;SDS011;11991;57.150;-2.134;2022-09-02T09:00:36;1.08;;;0.93;;
23628;SDS011;11991;57.150;-2.134;2022-09-02T09:11:01;0.75;;;0.70;;
23628;SDS011;11991;57.150;-2.134;2022-09-02T09:18:38;2.47;;;1.00;;
23628;SDS011;11991;57.150;-2.134;2022-09-02T09:21:32;0.85;;;0.50;;
23628;SDS011;11991;57.150;-2.134;2022-09-02T09:24:02;1.75;;;0.80;;
23628;SDS011;11991;57.150;-2.134;2022-09-02T09:26:35;1.52;;;0.70;;
23628;SDS011;11991;57.150;-2.134;2022-09-02T09:29:06;1.00;;;0.70;;
23628;SDS011;11991;57.150;-2.134;2022-09-02T09:31:34;1.02;;;0.70;;
23628;SDS011;11991;57.150;-2.134;2022-09-02T09:34:07;1.25;;;0.70;;
23628;SDS011;11991;57.150;-2.134;2022-09-02T09:39:20;0.65;;;0.60;;
23628;SDS011;11991;57.150;-2.134;2022-09-02T09:41:59;0.85;;;0.73;;
23628;SDS011;11991;57.150;-2.134;2022-09-02T09:49:46;1.38;;;1.00;;
23628;SDS011;11991;57.150;-2.134;2022-09-02T09:52:22;1.35;;;1.10;;
23628;SDS011;11991;57.150;-2.134;2022-09-02T09:57:50;0.70;;;0.70;;
23628;SDS011;11991;57.150;-2.134;2022-09-02T10:00:21;1.75;;;0.70;;
23628;SDS011;11991;57.150;-2.134;2022-09-02T10:03:03;1.33;;;0.80;;
23628;SDS011;11991;57.150;-2.134;2022-09-02T10:05:36;1.33;;;0.90;;
23628;SDS011;11991;57.150;-2.134;2022-09-02T10:08:06;0.60;;;0.60;;
23628;SDS011;11991;57.150;-2.134;2022-09-02T10:11:03;0.80;;;0.80;;
23628;SDS011;11991;57.150;-2.134;2022-09-02T10:13:34;1.13;;;0.82;;
23628;SDS011;11991;57.150;-2.134;2022-09-02T10:16:14;2.15;;;1.10;;
23628;SDS011;11991;57.150;-2.134;2022-09-02T10:27:19;2.25;;;1.08;;
23628;SDS011;11991;57.150;-2.134;2022-09-02T10:30:15;0.85;;;0.70;;
23628;SDS011;11991;57.150;-2.134;2022-09-02T10:40:42;1.38;;;1.15;;
23628;SDS011;11991;57.150;-2.134;2022-09-02T10:43:25;2.17;;;1.08;;
23628;SDS011;11991;57.150;-2.134;2022-09-02T10:46:24;1.27;;;0.80;;
23628;SDS011;11991;57.150;-2.134;2022-09-02T10:48:58;1.45;;;0.73;;
23628;SDS011;11991;57.150;-2.134;2022-09-02T10:51:44;1.10;;;0.70;;
23628;SDS011;11991;57.150;-2.134;2022-09-02T10:59:36;1.88;;;0.82;;
23628;SDS011;11991;57.150;-2.134;2022-09-02T11:02:16;0.80;;;0.68;;
23628;SDS011;11991;57.150;-2.134;2022-09-02T11:04:53;2.30;;;1.35;;
23628;SDS011;11991;57.150;-2.134;2022-09-02T11:11:24;1.77;;;1.20;;
23628;SDS011;11991;57.150;-2.134;2022-09-02T11:16:59;0.80;;;0.70;;
23628;SDS011;11991;57.150;-2.134;2022-09-02T11:20:25;1.15;;;0.93;;
23628;SDS011;11991;57.150;-2.134;2022-09-02T11:22:58;2.50;;;0.95;;
23628;SDS011;11991;57.150;-2.134;2022-09-02T11:25:37;0.90;;;0.80;;
23628;SDS011;11991;57.150;-2.134;2022-09-02T11:30:59;1.23;;;0.70;;
23628;SDS011;11991;57.150;-2.134;2022-09-02T11:33:47;0.88;;;0.60;;
23628;SDS011;11991;57.150;-2.134;2022-09-02T11:36:36;1.92;;;0.77;;
23628;SDS011;11991;57.150;-2.134;2022-09-02T11:39:12;1.38;;;1.10;;
23628;SDS011;11991;57.150;-2.134;2022-09-02T11:50:00;1.63;;;0.85;;
23628;SDS011;11991;57.150;-2.134;2022-09-02T11:55:37;0.68;;;0.68;;
23628;SDS011;11991;57.150;-2.134;2022-09-02T11:58:11;0.60;;;0.60;;
23628;SDS011;11991;57.150;-2.134;2022-09-02T12:03:42;3.05;;;0.80;;
23628;SDS011;11991;57.150;-2.134;2022-09-02T12:17:32;0.80;;;0.80;;
23628;SDS011;11991;57.150;-2.134;2022-09-02T12:20:11;2.22;;;0.85;;
23628;SDS011;11991;57.150;-2.134;2022-09-02T12:23:04;1.20;;;0.75;;
23628;SDS011;11991;57.150;-2.134;2022-09-02T12:25:55;1.48;;;0.70;;
23628;SDS011;11991;57.150;-2.134;2022-09-02T12:28:26;0.85;;;0.75;;
23628;SDS011;11991;57.150;-2.134;2022-09-02T12:33:31;1.05;;;0.82;;
23628;SDS011;11991;57.150;-2.134;2022-09-02T12:36:01;0.73;;;0.63;;
23628;SDS011;11991;57.150;-2.134;2022-09-02T12:38:31;0.75;;;0.70;;
23628;SDS011;11991;57.150;-2.134;2022-09-02T12:41:10;1.25;;;0.90;;
23628;SDS011;11991;57.150;-2.134;2022-09-02T12:43:56;1.60;;;0.90;;
23628;SDS011;11991;57.150;-2.134;2022-09-02T12:51:59;0.70;;;0.70;;
23628;SDS011;11991;57.150;-2.134;2022-09-02T12:57:15;1.08;;;0.65;;
23628;SDS011;11991;57.150;-2.134;2022-09-02T12:59:44;0.70;;;0.70;;
23628;SDS011;11991;57.150;-2.134;2022-09-02T13:16:37;0.70;;;0.70;;
23628;SDS011;11991;57.150;-2.134;2022-09-02T13:22:20;2.10;;;1.27;;
23628;SDS011;11991;57.150;-2.134;2022-09-02T13:31:09;2.58;;;1.55;;
23628;SDS011;11991;57.150;-2.134;2022-09-02T13:33:44;1.35;;;1.10;;
23628;SDS011;11991;57.150;-2.134;2022-09-02T13:36:20;1.15;;;0.88;;
23628;SDS011;11991;57.150;-2.134;2022-09-02T13:39:22;1.63;;;1.20;;
23628;SDS011;11991;57.150;-2.134;2022-09-02T13:41:52;2.08;;;1.08;;
23628;SDS011;11991;57.150;-2.134;2022-09-02T13:44:25;1.17;;;0.80;;
23628;SDS011;11991;57.150;-2.134;2022-09-02T13:47:02;1.15;;;0.80;;
23628;SDS011;11991;57.150;-2.134;2022-09-02T13:49:41;0.80;;;0.80;;
23628;SDS011;11991;57.150;-2.134;2022-09-02T13:52:20;0.60;;;0.60;;
23628;SDS011;11991;57.150;-2.134;2022-09-02T13:55:14;2.08;;;0.70;;
23628;SDS011;11991;57.150;-2.134;2022-09-02T14:00:28;1.85;;;1.00;;
23628;SDS011;11991;57.150;-2.134;2022-09-02T14:03:07;1.60;;;1.25;;
23628;SDS011;11991;57.150;-2.134;2022-09-02T14:05:39;1.15;;;0.90;;
23628;SDS011;11991;57.150;-2.134;2022-09-02T14:08:15;1.48;;;1.02;;
23628;SDS011;11991;57.150;-2.134;2022-09-02T14:10:54;1.05;;;0.68;;
23628;SDS011;11991;57.150;-2.134;2022-09-02T14:13:23;1.45;;;1.35;;
23628;SDS011;11991;57.150;-2.134;2022-09-02T14:15:52;0.95;;;0.85;;
23628;SDS011;11991;57.150;-2.134;2022-09-02T14:18:21;0.50;;;0.50;;
23628;SDS011;11991;57.150;-2.134;2022-09-02T14:23:28;1.73;;;0.93;;
23628;SDS011;11991;57.150;-2.134;2022-09-02T14:26:00;0.93;;;0.73;;
23628;SDS011;11991;57.150;-2.134;2022-09-02T14:28:30;1.00;;;0.70;;
23628;SDS011;11991;57.150;-2.134;2022-09-02T14:31:04;0.93;;;0.80;;
23628;SDS011;11991;57.150;-2.134;2022-09-02T14:33:40;1.48;;;0.65;;
23628;SDS011;11991;57.150;-2.134;2022-09-02T14:36:28;1.23;;;1.13;;
23628;SDS011;11991;57.150;-2.134;2022-09-02T14:39:11;1.00;;;0.60;;
23628;SDS011;11991;57.150;-2.134;2022-09-02T14:41:51;0.70;;;0.70;;
23628;SDS011;11991;57.150;-2.134;2022-09-02T14:44:30;0.60;;;0.60;;
23628;SDS011;11991;57.150;-2.134;2022-09-02T14:47:04;0.60;;;0.60;;
23628;SDS011;11991;57.150;-2.134;2022-09-02T14:49:38;1.75;;;0.80;;
23628;SDS011;11991;57.150;-2.134;2022-09-02T14:52:28;1.15;;;0.77;;
23628;SDS011;11991;57.150;-2.134;2022-09-02T14:55:02;0.60;;;0.60;;
23628;SDS011;11991;57.150;-2.134;2022-09-02T14:57:33;1.05;;;0.70;;
23628;SDS011;11991;57.150;-2.134;2022-09-02T15:00:05;2.40;;;0.68;;
23628;SDS011;11991;57.150;-2.134;2022-09-02T15:02:43;0.60;;;0.60;;
23628;SDS011;11991;57.150;-2.134;2022-09-02T15:05:13;0.70;;;0.70;;
23628;SDS011;11991;57.150;-2.134;2022-09-02T15:07:41;0.65;;;0.55;;
23628;SDS011;11991;57.150;-2.134;2022-09-02T15:10:08;0.60;;;0.60;;
23628;SDS011;11991;57.150;-2.134;2022-09-02T15:12:39;0.50;;;0.50;;
23628;SDS011;11991;57.150;-2.134;2022-09-02T15:15:10;0.95;;;0.75;;
23628;SDS011;11991;57.150;-2.134;2022-09-02T15:17:38;0.88;;;0.88;;
23628;SDS011;11991;57.150;-2.134;2022-09-02T15:20:06;0.50;;;0.50;;
23628;SDS011;11991;57.150;-2.134;2022-09-02T15:22:36;1.02;;;0.70;;
23628;SDS011;11991;57.150;-2.134;2022-09-02T15:25:04;0.50;;;0.50;;
23628;SDS011;11991;57.150;-2.134;2022-09-02T15:27:36;0.77;;;0.60;;
23628;SDS011;11991;57.150;-2.134;2022-09-02T15:30:05;1.60;;;0.73;;
23628;SDS011;11991;57.150;-2.134;2022-09-02T15:32:35;1.20;;;0.70;;
23628;SDS011;11991;57.150;-2.134;2022-09-02T15:35:13;1.88;;;0.93;;
23628;SDS011;11991;57.150;-2.134;2022-09-02T15:37:49;1.15;;;0.88;;
23628;SDS011;11991;57.150;-2.134;2022-09-02T15:40:28;0.63;;;0.60;;
23628;SDS011;11991;57.150;-2.134;2022-09-02T15:46:34;0.52;;;0.50;;
23628;SDS011;11991;57.150;-2.134;2022-09-02T15:49:06;0.60;;;0.50;;
23628;SDS011;11991;57.150;-2.134;2022-09-02T15:51:50;0.90;;;0.55;;
23628;SDS011;11991;57.150;-2.134;2022-09-02T15:54:36;0.60;;;0.50;;
23628;SDS011;11991;57.150;-2.134;2022-09-02T15:57:11;0.82;;;0.55;;
23628;SDS011;11991;57.150;-2.134;2022-09-02T15:59:44;1.58;;;0.80;;
23628;SDS011;11991;57.150;-2.134;2022-09-02T16:02:36;0.73;;;0.43;;
23628;SDS011;11991;57.150;-2.134;2022-09-02T16:05:14;0.68;;;0.68;;
23628;SDS011;11991;57.150;-2.134;2022-09-02T16:07:49;0.65;;;0.65;;
23628;SDS011;11991;57.150;-2.134;2022-09-02T16:10:27;0.40;;;0.40;;
23628;SDS011;11991;57.150;-2.134;2022-09-02T16:13:42;0.47;;;0.47;;
23628;SDS011;11991;57.150;-2.134;2022-09-02T16:16:24;0.75;;;0.60;;
23628;SDS011;11991;57.150;-2.134;2022-09-02T16:19:24;0.65;;;0.50;;
23628;SDS011;11991;57.150;-2.134;2022-09-02T16:22:00;0.65;;;0.60;;
23628;SDS011;11991;57.150;-2.134;2022-09-02T16:24:45;0.73;;;0.65;;
23628;SDS011;11991;57.150;-2.134;2022-09-02T16:27:27;0.70;;;0.60;;
23628;SDS011;11991;57.150;-2.134;2022-09-02T16:30:19;0.85;;;0.70;;
23628;SDS011;11991;57.150;-2.134;2022-09-02T16:32:47;1.23;;;0.98;;
23628;SDS011;11991;57.150;-2.134;2022-09-02T16:35:17;1.05;;;0.70;;
23628;SDS011;11991;57.150;-2.134;2022-09-02T16:37:44;0.60;;;0.60;;
23628;SDS011;11991;57.150;-2.134;2022-09-02T16:40:12;0.60;;;0.60;;
23628;SDS011;11991;57.150;-2.134;2022-09-02T16:42:47;1.15;;;0.70;;
23628;SDS011;11991;57.150;-2.134;2022-09-02T16:45:15;1.55;;;0.68;;
23628;SDS011;11991;57.150;-2.134;2022-09-02T16:47:42;0.70;;;0.70;;
23628;SDS011;11991;57.150;-2.134;2022-09-02T16:50:09;1.25;;;0.98;;
23628;SDS011;11991;57.150;-2.134;2022-09-02T16:52:38;0.85;;;0.73;;
23628;SDS011;11991;57.150;-2.134;2022-09-02T16:55:07;0.90;;;0.60;;
23628;SDS011;11991;57.150;-2.134;2022-09-02T16:57:34;0.75;;;0.70;;
23628;SDS011;11991;57.150;-2.134;2022-09-02T17:00:02;0.60;;;0.60;;
23628;SDS011;11991;57.150;-2.134;2022-09-02T17:02:30;0.75;;;0.70;;
23628;SDS011;11991;57.150;-2.134;2022-09-02T17:04:58;0.68;;;0.68;;
23628;SDS011;11991;57.150;-2.134;2022-09-02T17:07:25;0.63;;;0.55;;
23628;SDS011;11991;57.150;-2.134;2022-09-02T17:09:52;0.60;;;0.60;;
23628;SDS011;11991;57.150;-2.134;2022-09-02T17:12:23;0.70;;;0.70;;
23628;SDS011;11991;57.150;-2.134;2022-09-02T17:14:50;0.50;;;0.50;;